createdAt,value
2023-03-29T00:02:03.288Z,1.60
2023-03-29T00:04:30.086Z,1.50
2023-03-29T00:06:57.092Z,1.35
2023-03-29T00:09:26.472Z,1.30
2023-03-29T00:11:53.419Z,1.23
2023-03-29T00:14:20.200Z,1.70
2023-03-29T00:16:47.117Z,1.40
2023-03-29T00:19:14.097Z,1.63
2023-03-29T00:21:40.920Z,2.15
2023-03-29T00:24:07.805Z,2.17
2023-03-29T00:26:34.708Z,2.00
2023-03-29T00:29:01.500Z,1.90
2023-03-29T00:31:28.580Z,1.75
2023-03-29T00:33:55.806Z,1.40
2023-03-29T00:36:23.269Z,1.58
2023-03-29T00:38:50.171Z,1.50
2023-03-29T00:41:17.050Z,1.55
2023-03-29T00:44:00.272Z,1.63
2023-03-29T00:46:29.821Z,1.52
2023-03-29T00:49:12.708Z,1.63
2023-03-29T00:51:41.443Z,1.45
2023-03-29T00:54:14.643Z,1.48
2023-03-29T00:56:44.650Z,1.30
2023-03-29T00:59:17.692Z,1.30
2023-03-29T01:01:54.923Z,1.50
2023-03-29T01:04:31.698Z,1.80
2023-03-29T01:07:01.191Z,1.50
2023-03-29T01:09:31.045Z,1.35
2023-03-29T01:12:02.532Z,1.60
2023-03-29T01:14:40.031Z,1.38
2023-03-29T01:17:07.545Z,1.60
2023-03-29T01:19:44.019Z,1.50
2023-03-29T01:22:39.953Z,1.40
2023-03-29T01:25:13.178Z,1.92
2023-03-29T01:27:54.926Z,1.50
2023-03-29T01:30:43.762Z,1.90
2023-03-29T01:33:34.582Z,1.58
2023-03-29T01:36:17.396Z,1.40
2023-03-29T01:38:50.679Z,1.50
2023-03-29T01:41:17.587Z,1.80
2023-03-29T01:43:48.482Z,1.70
2023-03-29T01:46:41.295Z,1.05
2023-03-29T01:53:49.324Z,1.80
2023-03-29T01:56:23.011Z,2.00
2023-03-29T01:59:00.708Z,1.85
2023-03-29T02:01:33.053Z,1.40
2023-03-29T02:04:03.941Z,1.92
2023-03-29T02:06:34.760Z,2.10
2023-03-29T02:09:02.648Z,2.42
2023-03-29T02:11:29.647Z,2.42
2023-03-29T02:13:57.571Z,2.20
2023-03-29T02:16:24.582Z,2.38
2023-03-29T02:18:53.058Z,2.33
2023-03-29T02:21:34.056Z,2.28
2023-03-29T02:24:08.136Z,1.80
2023-03-29T02:26:36.118Z,1.88
2023-03-29T02:29:03.378Z,2.20
2023-03-29T02:31:40.507Z,2.25
2023-03-29T02:34:17.016Z,2.40
2023-03-29T02:36:52.777Z,1.88
2023-03-29T02:39:21.296Z,2.03
2023-03-29T02:41:50.377Z,2.20
2023-03-29T02:44:21.493Z,2.63
2023-03-29T02:46:53.158Z,2.58
2023-03-29T02:49:20.078Z,2.25
2023-03-29T02:51:53.107Z,2.22
2023-03-29T02:54:25.962Z,2.10
2023-03-29T02:57:02.566Z,1.98
2023-03-29T02:59:30.370Z,1.70
2023-03-29T03:01:58.340Z,1.90
2023-03-29T03:04:26.747Z,1.85
2023-03-29T03:06:53.671Z,1.80
2023-03-29T03:09:20.725Z,1.85
2023-03-29T03:11:47.755Z,1.80
2023-03-29T03:14:14.763Z,1.90
2023-03-29T03:16:42.003Z,1.95
2023-03-29T03:19:10.318Z,1.70
2023-03-29T03:21:37.745Z,1.65
2023-03-29T03:24:05.498Z,2.13
2023-03-29T03:26:32.588Z,1.73
2023-03-29T03:29:00.817Z,1.90
2023-03-29T03:31:46.725Z,1.90
2023-03-29T03:34:34.578Z,2.05
2023-03-29T03:37:02.202Z,1.80
2023-03-29T03:39:32.628Z,1.80
2023-03-29T03:42:00.922Z,1.50
2023-03-29T03:44:28.222Z,1.92
2023-03-29T03:47:24.725Z,2.10
2023-03-29T03:49:53.372Z,1.75
2023-03-29T03:52:23.631Z,1.80
2023-03-29T03:54:50.523Z,1.73
2023-03-29T03:57:37.926Z,1.80
2023-03-29T04:00:19.597Z,2.05
2023-03-29T04:02:56.520Z,1.85
2023-03-29T04:05:23.712Z,1.83
2023-03-29T04:07:50.964Z,2.00
2023-03-29T04:10:37.517Z,1.65
2023-03-29T04:13:11.941Z,1.80
2023-03-29T04:16:01.425Z,1.50
2023-03-29T04:18:28.822Z,1.90
2023-03-29T04:20:58.226Z,2.10
2023-03-29T04:23:26.343Z,2.28
2023-03-29T04:25:57.148Z,1.90
2023-03-29T04:28:56.502Z,1.88
2023-03-29T04:31:33.657Z,1.90
2023-03-29T04:34:12.304Z,1.83
2023-03-29T04:36:39.252Z,1.65
2023-03-29T04:39:12.416Z,2.03
2023-03-29T04:41:40.361Z,2.10
2023-03-29T04:44:36.870Z,1.63
2023-03-29T04:47:07.011Z,1.80
2023-03-29T04:49:53.527Z,1.67
2023-03-29T04:52:33.087Z,2.00
2023-03-29T04:55:01.762Z,1.98
2023-03-29T04:57:53.368Z,2.25
2023-03-29T05:00:27.320Z,2.30
2023-03-29T05:03:14.556Z,2.63
2023-03-29T05:05:54.135Z,2.45
2023-03-29T05:08:21.608Z,2.40
2023-03-29T05:11:11.909Z,2.35
2023-03-29T05:13:39.180Z,2.53
2023-03-29T05:16:07.702Z,2.47
2023-03-29T05:18:35.608Z,2.55
2023-03-29T05:21:04.329Z,2.38
2023-03-29T05:23:32.970Z,2.17
2023-03-29T05:26:18.141Z,2.30
2023-03-29T05:28:50.647Z,2.50
2023-03-29T05:31:17.672Z,2.47
2023-03-29T05:33:48.637Z,2.45
2023-03-29T05:36:18.748Z,2.70
2023-03-29T05:38:49.250Z,2.92
2023-03-29T05:41:17.892Z,3.30
2023-03-29T05:44:18.145Z,2.92
2023-03-29T05:46:49.234Z,3.38
2023-03-29T05:49:17.455Z,3.17
2023-03-29T05:52:01.007Z,3.20
2023-03-29T05:54:29.899Z,3.60
2023-03-29T05:56:57.153Z,3.08
2023-03-29T05:59:24.377Z,3.03
2023-03-29T06:01:51.919Z,2.50
2023-03-29T06:04:21.337Z,2.50
2023-03-29T06:07:12.411Z,2.40
2023-03-29T06:09:41.598Z,3.47
2023-03-29T06:12:08.922Z,2.63
2023-03-29T06:14:49.220Z,2.80
2023-03-29T06:17:22.318Z,2.90
2023-03-29T06:19:49.110Z,3.00
2023-03-29T06:22:17.625Z,3.03
2023-03-29T06:24:44.403Z,2.55
2023-03-29T06:27:21.520Z,2.65
2023-03-29T06:29:48.480Z,2.55
2023-03-29T06:32:15.912Z,2.50
2023-03-29T06:34:48.137Z,4.57
2023-03-29T06:37:29.088Z,3.33
2023-03-29T06:42:43.309Z,2.88
2023-03-29T06:45:33.549Z,2.67
2023-03-29T06:48:04.525Z,2.70
2023-03-29T06:50:31.877Z,2.80
2023-03-29T06:53:10.268Z,2.50
2023-03-29T06:55:38.833Z,2.53
2023-03-29T06:58:38.181Z,2.42
2023-03-29T07:01:17.757Z,2.25
2023-03-29T07:03:50.318Z,2.38
2023-03-29T07:06:22.848Z,3.20
2023-03-29T07:08:52.317Z,2.63
2023-03-29T07:11:54.531Z,2.55
2023-03-29T07:14:26.297Z,2.13
2023-03-29T07:16:53.234Z,2.03
2023-03-29T07:19:30.098Z,2.30
2023-03-29T07:22:25.803Z,2.33
2023-03-29T07:24:57.035Z,2.40
2023-03-29T07:27:23.928Z,2.30
2023-03-29T07:29:51.444Z,2.15
2023-03-29T07:32:19.190Z,2.70
2023-03-29T07:34:48.317Z,2.60
2023-03-29T07:37:24.839Z,2.60
2023-03-29T07:39:53.439Z,2.60
2023-03-29T07:42:54.956Z,2.40
2023-03-29T07:45:26.762Z,2.40
2023-03-29T07:48:00.575Z,2.17
2023-03-29T07:50:34.644Z,2.17
2023-03-29T07:53:03.956Z,2.50
2023-03-29T07:55:32.389Z,1.98
2023-03-29T07:58:24.620Z,2.33
2023-03-29T08:00:51.491Z,2.22
2023-03-29T08:03:38.684Z,2.45
2023-03-29T08:06:06.843Z,2.70
2023-03-29T08:08:33.673Z,2.03
2023-03-29T08:11:08.884Z,2.30
2023-03-29T08:13:44.552Z,2.50
2023-03-29T08:16:37.445Z,1.70
2023-03-29T08:19:10.018Z,2.20
2023-03-29T08:21:57.537Z,2.15
2023-03-29T08:24:27.257Z,2.38
2023-03-29T08:26:58.702Z,2.10
2023-03-29T08:29:25.962Z,2.65
2023-03-29T08:31:52.847Z,2.60
2023-03-29T08:34:19.746Z,2.65
2023-03-29T08:36:56.100Z,2.65
2023-03-29T08:39:30.057Z,2.40
2023-03-29T08:42:57.005Z,2.50
2023-03-29T08:45:33.787Z,2.38
2023-03-29T08:48:16.547Z,2.17
2023-03-29T08:50:48.061Z,2.58
2023-03-29T08:53:24.340Z,2.30
2023-03-29T08:56:26.842Z,2.78
2023-03-29T08:58:55.906Z,2.80
2023-03-29T09:01:25.261Z,2.13
2023-03-29T09:04:18.880Z,2.70
2023-03-29T09:06:58.450Z,2.30
2023-03-29T09:09:34.427Z,2.28
2023-03-29T09:12:48.451Z,2.20
2023-03-29T09:15:19.801Z,2.20
2023-03-29T09:18:21.855Z,2.40
2023-03-29T09:20:58.921Z,2.40
2023-03-29T09:23:55.849Z,2.53
2023-03-29T09:26:59.012Z,2.40
2023-03-29T09:30:24.460Z,1.60
2023-03-29T09:33:20.988Z,1.77
2023-03-29T09:36:23.572Z,2.33
2023-03-29T09:38:54.362Z,2.00
2023-03-29T09:41:53.130Z,2.10
2023-03-29T09:44:31.319Z,1.80
2023-03-29T09:47:28.263Z,1.70
2023-03-29T09:50:27.229Z,1.88
2023-03-29T09:52:56.976Z,1.58
2023-03-29T09:55:29.240Z,2.30
2023-03-29T09:58:24.420Z,2.60
2023-03-29T10:00:58.282Z,2.13
2023-03-29T10:03:29.939Z,2.10
2023-03-29T10:06:09.686Z,1.90
2023-03-29T10:08:40.772Z,2.00
2023-03-29T10:11:36.971Z,2.20
2023-03-29T10:16:41.902Z,1.70
2023-03-29T10:19:46.921Z,1.77
2023-03-29T10:22:22.778Z,1.95
2023-03-29T10:24:52.109Z,2.08
2023-03-29T10:27:30.643Z,1.80
2023-03-29T10:29:59.546Z,1.67
2023-03-29T10:32:36.899Z,1.70
2023-03-29T10:35:44.225Z,1.52
2023-03-29T10:38:22.808Z,1.45
2023-03-29T10:40:53.053Z,1.50
2023-03-29T10:43:19.852Z,1.77
2023-03-29T10:45:51.887Z,1.80
2023-03-29T10:48:19.360Z,1.80
2023-03-29T10:50:52.926Z,1.50
2023-03-29T10:53:26.166Z,1.20
2023-03-29T10:56:11.532Z,1.45
2023-03-29T10:58:53.308Z,1.35
2023-03-29T11:01:34.658Z,1.80
2023-03-29T11:04:38.948Z,1.90
2023-03-29T11:07:53.254Z,1.73
2023-03-29T11:10:32.217Z,2.08
2023-03-29T11:13:08.398Z,2.10
2023-03-29T11:15:57.264Z,2.05
2023-03-29T11:18:42.881Z,1.92
2023-03-29T11:21:33.401Z,1.83
2023-03-29T11:24:23.432Z,1.80
2023-03-29T11:27:05.348Z,1.70
2023-03-29T11:29:58.622Z,1.60
2023-03-29T11:32:50.823Z,2.13
2023-03-29T11:35:43.293Z,2.00
2023-03-29T11:38:25.114Z,1.83
2023-03-29T11:41:17.671Z,1.70
2023-03-29T11:43:49.735Z,2.20
2023-03-29T11:46:16.871Z,1.70
2023-03-29T11:48:59.235Z,1.90
2023-03-29T11:51:32.173Z,1.63
2023-03-29T11:54:17.657Z,1.70
2023-03-29T11:56:46.730Z,1.80
2023-03-29T11:59:30.143Z,1.60
2023-03-29T12:02:12.575Z,2.08
2023-03-29T12:04:45.893Z,1.58
2023-03-29T12:07:23.041Z,1.45
2023-03-29T12:10:05.046Z,1.70
2023-03-29T12:13:02.102Z,1.88
2023-03-29T12:15:38.292Z,1.90
2023-03-29T12:18:44.115Z,1.45
2023-03-29T12:23:47.758Z,1.63
2023-03-29T12:26:17.547Z,1.83
2023-03-29T12:29:10.218Z,1.80
2023-03-29T12:32:01.545Z,1.65
2023-03-29T12:34:51.607Z,1.63
2023-03-29T12:38:09.705Z,1.70
2023-03-29T12:40:57.454Z,1.75
2023-03-29T12:43:43.498Z,1.90
2023-03-29T12:46:35.407Z,1.88
2023-03-29T12:49:21.240Z,1.80
2023-03-29T12:51:48.907Z,1.90
2023-03-29T12:54:21.628Z,1.40
2023-03-29T12:56:55.081Z,1.73
2023-03-29T12:59:46.902Z,1.80
2023-03-29T13:02:14.001Z,1.63
2023-03-29T13:04:44.047Z,1.50
2023-03-29T13:07:22.886Z,1.63
2023-03-29T13:10:08.170Z,1.65
2023-03-29T13:12:34.878Z,1.73
2023-03-29T13:15:07.850Z,1.90
2023-03-29T13:17:50.169Z,2.08
2023-03-29T13:20:54.239Z,1.50
2023-03-29T13:23:56.389Z,1.65
2023-03-29T13:26:44.846Z,1.35
2023-03-29T13:29:34.373Z,1.60
2023-03-29T13:32:27.112Z,1.73
2023-03-29T13:35:15.645Z,1.38
2023-03-29T13:38:07.261Z,1.60
2023-03-29T13:40:40.090Z,1.77
2023-03-29T13:43:24.921Z,1.65
2023-03-29T13:46:05.774Z,1.40
2023-03-29T13:48:46.346Z,1.23
2023-03-29T13:51:18.995Z,1.50
2023-03-29T13:54:00.657Z,1.10
2023-03-29T13:56:34.523Z,1.00
2023-03-29T13:59:18.880Z,1.10
2023-03-29T14:01:48.398Z,1.50
2023-03-29T14:04:25.250Z,1.40
2023-03-29T14:06:55.688Z,1.33
2023-03-29T14:09:29.924Z,1.60
2023-03-29T14:11:58.798Z,1.38
2023-03-29T14:14:29.538Z,1.40
2023-03-29T14:16:57.245Z,1.20
2023-03-29T14:19:33.102Z,1.30
2023-03-29T14:22:01.688Z,1.45
2023-03-29T14:24:53.075Z,1.60
2023-03-29T14:27:21.345Z,1.60
2023-03-29T14:29:51.101Z,1.42
2023-03-29T14:32:27.417Z,1.52
2023-03-29T14:34:54.547Z,1.20
2023-03-29T14:37:29.709Z,1.00
2023-03-29T14:39:58.737Z,1.10
2023-03-29T14:42:28.240Z,1.50
2023-03-29T14:45:04.044Z,1.30
2023-03-29T14:47:33.039Z,1.30
2023-03-29T14:50:01.654Z,1.40
2023-03-29T14:52:30.310Z,1.27
2023-03-29T14:55:00.061Z,1.40
2023-03-29T14:57:32.490Z,1.35
2023-03-29T15:00:01.889Z,1.30
2023-03-29T15:02:31.355Z,1.30
2023-03-29T15:05:30.295Z,1.58
2023-03-29T15:07:57.222Z,1.88
2023-03-29T15:10:24.341Z,1.30
2023-03-29T15:12:51.581Z,1.30
2023-03-29T15:15:18.782Z,1.30
2023-03-29T15:17:50.955Z,1.40
2023-03-29T15:20:39.639Z,1.52
2023-03-29T15:23:15.382Z,1.48
2023-03-29T15:26:07.349Z,1.69
2023-03-29T15:28:35.662Z,1.40
2023-03-29T15:35:26.219Z,1.23
2023-03-29T15:37:53.872Z,1.50
2023-03-29T15:40:28.209Z,1.50
2023-03-29T15:42:56.494Z,1.15
2023-03-29T15:45:23.439Z,1.50
2023-03-29T15:47:50.287Z,1.60
2023-03-29T15:50:19.706Z,1.60
2023-03-29T15:52:46.495Z,1.15
2023-03-29T15:55:13.456Z,1.13
2023-03-29T15:57:42.621Z,1.33
2023-03-29T16:00:17.218Z,1.23
2023-03-29T16:02:44.212Z,1.20
2023-03-29T16:05:13.147Z,1.38
2023-03-29T16:07:40.329Z,1.40
2023-03-29T16:10:07.643Z,1.17
2023-03-29T16:12:36.986Z,1.23
2023-03-29T16:15:12.195Z,1.20
2023-03-29T16:17:39.036Z,1.08
2023-03-29T16:20:07.468Z,0.90
2023-03-29T16:22:34.566Z,1.23
2023-03-29T16:25:01.560Z,1.23
2023-03-29T16:27:28.485Z,1.30
2023-03-29T16:29:55.479Z,1.27
2023-03-29T16:32:22.936Z,1.48
2023-03-29T16:34:49.850Z,1.70
2023-03-29T16:37:16.705Z,1.38
2023-03-29T16:39:43.449Z,1.48
2023-03-29T16:42:12.138Z,1.45
2023-03-29T16:44:39.194Z,1.60
2023-03-29T16:47:06.216Z,1.30
2023-03-29T16:49:32.995Z,1.52
2023-03-29T16:51:59.735Z,1.48
2023-03-29T16:54:29.579Z,1.45
2023-03-29T16:56:56.341Z,1.30
2023-03-29T16:59:23.336Z,1.38
2023-03-29T17:01:50.304Z,1.50
2023-03-29T17:04:17.132Z,1.48
2023-03-29T17:06:44.041Z,1.40
2023-03-29T17:09:10.853Z,1.33
2023-03-29T17:11:37.762Z,1.15
2023-03-29T17:14:04.659Z,1.58
2023-03-29T17:16:31.887Z,1.50
2023-03-29T17:19:02.412Z,1.70
2023-03-29T17:21:29.781Z,1.23
2023-03-29T17:23:56.708Z,1.25
2023-03-29T17:26:23.488Z,1.20
2023-03-29T17:28:50.475Z,1.30
2023-03-29T17:31:19.260Z,1.30
2023-03-29T17:33:47.320Z,1.05
2023-03-29T17:36:14.607Z,1.10
2023-03-29T17:38:42.750Z,1.10
2023-03-29T17:41:09.881Z,1.17
2023-03-29T17:43:36.884Z,1.23
2023-03-29T17:46:03.854Z,0.80
2023-03-29T17:48:32.775Z,1.00
2023-03-29T17:50:59.600Z,1.10
2023-03-29T17:53:26.949Z,1.20
2023-03-29T17:55:53.776Z,1.30
2023-03-29T17:58:20.754Z,1.08
2023-03-29T18:00:47.624Z,1.10
2023-03-29T18:03:14.886Z,0.75
2023-03-29T18:05:41.868Z,1.20
2023-03-29T18:08:08.706Z,1.00
2023-03-29T18:10:36.829Z,0.90
2023-03-29T18:13:03.829Z,1.20
2023-03-29T18:15:30.512Z,2.53
2023-03-29T18:17:57.413Z,2.22
2023-03-29T18:20:24.235Z,1.70
2023-03-29T18:22:51.054Z,1.65
2023-03-29T18:25:18.275Z,2.88
2023-03-29T18:27:45.300Z,3.83
2023-03-29T18:30:13.744Z,3.67
2023-03-29T18:32:40.868Z,4.10
2023-03-29T18:35:08.135Z,5.00
2023-03-29T18:37:34.881Z,5.57
2023-03-29T18:40:02.100Z,5.10
2023-03-29T18:42:29.025Z,5.95
2023-03-29T18:44:56.148Z,4.32
2023-03-29T18:47:22.863Z,3.92
2023-03-29T18:49:49.767Z,3.47
2023-03-29T18:52:16.511Z,2.92
2023-03-29T18:54:43.339Z,2.40
2023-03-29T18:57:10.423Z,2.10
2023-03-29T18:59:37.244Z,1.90
2023-03-29T19:02:04.344Z,2.30
2023-03-29T19:04:31.213Z,5.75
2023-03-29T19:06:59.712Z,5.30
2023-03-29T19:09:27.657Z,3.85
2023-03-29T19:11:54.419Z,2.67
2023-03-29T19:14:25.192Z,2.42
2023-03-29T19:16:52.729Z,2.13
2023-03-29T19:19:21.694Z,1.85
2023-03-29T19:21:49.480Z,1.90
2023-03-29T19:24:16.586Z,1.63
2023-03-29T19:26:44.341Z,2.00
2023-03-29T19:29:11.564Z,2.00
2023-03-29T19:31:38.720Z,2.30
2023-03-29T19:34:11.096Z,2.10
2023-03-29T19:36:38.663Z,2.08
2023-03-29T19:39:05.905Z,2.25
2023-03-29T19:41:33.006Z,2.50
2023-03-29T19:43:59.870Z,2.72
2023-03-29T19:46:28.267Z,2.15
2023-03-29T19:48:56.143Z,2.20
2023-03-29T19:51:23.533Z,1.90
2023-03-29T19:53:50.486Z,1.60
2023-03-29T19:56:17.764Z,1.80
2023-03-29T19:58:44.630Z,1.52
2023-03-29T20:01:11.406Z,2.00
2023-03-29T20:03:38.696Z,1.98
2023-03-29T20:06:06.447Z,2.10
2023-03-29T20:08:33.343Z,1.75
2023-03-29T20:11:02.817Z,2.20
2023-03-29T20:13:38.075Z,1.90
2023-03-29T20:16:11.046Z,1.75
2023-03-29T20:18:40.906Z,2.00
2023-03-29T20:21:08.710Z,2.20
2023-03-29T20:23:35.917Z,1.70
2023-03-29T20:26:03.231Z,2.10
2023-03-29T20:28:29.987Z,1.98
2023-03-29T20:30:56.834Z,1.80
2023-03-29T20:33:23.941Z,2.20
2023-03-29T20:35:50.751Z,2.03
2023-03-29T20:38:17.557Z,2.00
2023-03-29T20:40:44.837Z,1.63
2023-03-29T20:43:13.460Z,1.77
2023-03-29T20:45:52.664Z,1.80
2023-03-29T20:48:22.921Z,1.70
2023-03-29T20:50:50.393Z,1.67
2023-03-29T20:53:18.392Z,1.70
2023-03-29T20:55:45.365Z,1.65
2023-03-29T20:58:12.181Z,1.50
2023-03-29T21:00:40.360Z,1.35
2023-03-29T21:03:08.540Z,1.30
2023-03-29T21:05:35.555Z,1.63
2023-03-29T21:08:04.407Z,1.80
2023-03-29T21:10:31.637Z,1.60
2023-03-29T21:13:00.264Z,1.67
2023-03-29T21:15:28.670Z,1.77
2023-03-29T21:17:55.945Z,1.80
2023-03-29T21:20:22.877Z,1.60
2023-03-29T21:22:49.630Z,1.42
2023-03-29T21:25:16.508Z,1.63
2023-03-29T21:27:43.640Z,1.50
2023-03-29T21:30:11.208Z,1.85
2023-03-29T21:32:38.211Z,1.80
2023-03-29T21:35:05.625Z,1.70
2023-03-29T21:37:32.337Z,1.70
2023-03-29T21:39:59.058Z,1.85
2023-03-29T21:42:26.001Z,1.70
2023-03-29T21:44:52.733Z,1.58
2023-03-29T21:47:19.556Z,1.48
2023-03-29T21:49:46.272Z,1.50
2023-03-29T21:52:13.059Z,1.70
2023-03-29T21:54:39.803Z,1.70
2023-03-29T21:57:06.709Z,1.27
2023-03-29T21:59:33.532Z,2.50
2023-03-29T22:02:00.486Z,2.60
2023-03-29T22:04:36.615Z,2.45
2023-03-29T22:07:04.976Z,2.28
2023-03-29T22:09:34.734Z,2.40
2023-03-29T22:12:02.041Z,2.50
2023-03-29T22:14:30.179Z,2.17
2023-03-29T22:16:57.219Z,2.20
2023-03-29T22:19:24.123Z,2.30
2023-03-29T22:21:51.357Z,2.20
2023-03-29T22:24:18.650Z,2.05
2023-03-29T22:26:45.835Z,1.83
2023-03-29T22:29:12.591Z,1.80
2023-03-29T22:31:39.685Z,1.90
2023-03-29T22:34:07.552Z,1.95
2023-03-29T22:36:36.113Z,1.60
2023-03-29T22:39:03.748Z,1.60
2023-03-29T22:41:30.815Z,1.50
2023-03-29T22:43:59.223Z,1.50
2023-03-29T22:46:26.341Z,1.60
2023-03-29T22:48:53.460Z,1.77
2023-03-29T22:51:20.682Z,1.70
2023-03-29T22:53:47.912Z,1.90
2023-03-29T22:56:16.007Z,1.70
2023-03-29T22:58:43.564Z,1.90
2023-03-29T23:01:10.670Z,1.80
2023-03-29T23:03:37.482Z,1.42
2023-03-29T23:06:04.561Z,1.60
2023-03-29T23:08:33.124Z,1.50
2023-03-29T23:11:00.328Z,1.50
2023-03-29T23:13:29.097Z,1.35
2023-03-29T23:16:00.835Z,1.40
2023-03-29T23:18:30.530Z,1.30
2023-03-29T23:20:58.848Z,1.50
2023-03-29T23:23:28.084Z,1.50
2023-03-29T23:25:55.720Z,1.40
2023-03-29T23:28:26.964Z,1.65
2023-03-29T23:31:00.982Z,1.60
2023-03-29T23:33:30.507Z,1.55
2023-03-29T23:35:57.319Z,1.42
2023-03-29T23:38:24.192Z,1.55
2023-03-29T23:40:58.629Z,1.40
2023-03-29T23:43:35.662Z,1.40
2023-03-29T23:46:11.933Z,1.38
2023-03-29T23:48:39.071Z,1.40
2023-03-29T23:51:08.350Z,1.80
2023-03-29T23:53:35.282Z,1.77
2023-03-29T23:56:03.950Z,2.00
2023-03-29T23:58:33.489Z,1.98
